sensor_id;sensor_type;location;lat;lon;timestamp;P1;durP1;ratioP1;P2;durP2;ratioP2
44696;SDS011;57264;47.480;19.354;2023-04-25T00:00:25;47.83;;;8.23;;
44696;SDS011;57264;47.480;19.354;2023-04-25T00:02:51;46.37;;;7.77;;
44696;SDS011;57264;47.480;19.354;2023-04-25T00:05:16;46.87;;;6.80;;
44696;SDS011;57264;47.480;19.354;2023-04-25T00:07:42;46.87;;;7.27;;
44696;SDS011;57264;47.480;19.354;2023-04-25T00:10:08;47.77;;;10.20;;
44696;SDS011;57264;47.480;19.354;2023-04-25T00:12:36;45.97;;;6.88;;
44696;SDS011;57264;47.480;19.354;2023-04-25T00:15:02;49.10;;;7.33;;
44696;SDS011;57264;47.480;19.354;2023-04-25T00:17:28;44.97;;;7.80;;
44696;SDS011;57264;47.480;19.354;2023-04-25T00:19:54;40.55;;;7.50;;
44696;SDS011;57264;47.480;19.354;2023-04-25T00:22:20;60.03;;;7.65;;
44696;SDS011;57264;47.480;19.354;2023-04-25T00:24:46;51.30;;;8.27;;
44696;SDS011;57264;47.480;19.354;2023-04-25T00:27:12;48.80;;;6.87;;
44696;SDS011;57264;47.480;19.354;2023-04-25T00:29:37;47.43;;;7.40;;
44696;SDS011;57264;47.480;19.354;2023-04-25T00:32:03;52.37;;;8.93;;
44696;SDS011;57264;47.480;19.354;2023-04-25T00:34:28;47.60;;;8.03;;
44696;SDS011;57264;47.480;19.354;2023-04-25T00:36:54;49.17;;;7.27;;
44696;SDS011;57264;47.480;19.354;2023-04-25T00:39:20;95.90;;;12.80;;
44696;SDS011;57264;47.480;19.354;2023-04-25T00:41:45;54.67;;;12.43;;
44696;SDS011;57264;47.480;19.354;2023-04-25T00:44:12;53.38;;;9.98;;
44696;SDS011;57264;47.480;19.354;2023-04-25T00:46:38;49.33;;;11.57;;
44696;SDS011;57264;47.480;19.354;2023-04-25T00:49:05;51.50;;;12.05;;
44696;SDS011;57264;47.480;19.354;2023-04-25T00:51:30;53.37;;;10.77;;
44696;SDS011;57264;47.480;19.354;2023-04-25T00:53:58;53.80;;;13.27;;
44696;SDS011;57264;47.480;19.354;2023-04-25T00:56:24;54.03;;;13.93;;
44696;SDS011;57264;47.480;19.354;2023-04-25T00:58:50;60.57;;;11.30;;
44696;SDS011;57264;47.480;19.354;2023-04-25T01:04:48;42.83;;;21.45;;
44696;SDS011;57264;47.480;19.354;2023-04-25T01:07:14;45.63;;;18.30;;
44696;SDS011;57264;47.480;19.354;2023-04-25T01:09:41;233.25;;;37.33;;
44696;SDS011;57264;47.480;19.354;2023-04-25T01:12:06;50.33;;;21.03;;
44696;SDS011;57264;47.480;19.354;2023-04-25T01:14:32;45.53;;;25.40;;
44696;SDS011;57264;47.480;19.354;2023-04-25T01:16:58;45.87;;;23.23;;
44696;SDS011;57264;47.480;19.354;2023-04-25T01:19:23;41.47;;;17.40;;
44696;SDS011;57264;47.480;19.354;2023-04-25T01:21:49;41.97;;;14.47;;
44696;SDS011;57264;47.480;19.354;2023-04-25T01:24:15;40.67;;;14.50;;
44696;SDS011;57264;47.480;19.354;2023-04-25T01:26:41;32.13;;;18.63;;
44696;SDS011;57264;47.480;19.354;2023-04-25T01:29:15;27.77;;;13.15;;
44696;SDS011;57264;47.480;19.354;2023-04-25T01:31:42;29.63;;;11.50;;
44696;SDS011;57264;47.480;19.354;2023-04-25T01:34:09;32.83;;;12.48;;
44696;SDS011;57264;47.480;19.354;2023-04-25T01:36:35;30.03;;;10.57;;
44696;SDS011;57264;47.480;19.354;2023-04-25T01:39:01;28.70;;;10.47;;
44696;SDS011;57264;47.480;19.354;2023-04-25T01:41:27;31.97;;;6.23;;
44696;SDS011;57264;47.480;19.354;2023-04-25T01:43:52;30.10;;;7.03;;
44696;SDS011;57264;47.480;19.354;2023-04-25T01:46:18;30.20;;;6.47;;
44696;SDS011;57264;47.480;19.354;2023-04-25T01:48:44;30.50;;;6.73;;
44696;SDS011;57264;47.480;19.354;2023-04-25T01:51:10;25.67;;;6.03;;
44696;SDS011;57264;47.480;19.354;2023-04-25T01:53:36;27.70;;;6.50;;
44696;SDS011;57264;47.480;19.354;2023-04-25T01:56:03;27.80;;;8.73;;
44696;SDS011;57264;47.480;19.354;2023-04-25T01:58:28;43.00;;;18.37;;
44696;SDS011;57264;47.480;19.354;2023-04-25T02:00:54;27.33;;;6.17;;
44696;SDS011;57264;47.480;19.354;2023-04-25T02:03:20;28.37;;;7.50;;
44696;SDS011;57264;47.480;19.354;2023-04-25T02:05:45;26.50;;;5.97;;
44696;SDS011;57264;47.480;19.354;2023-04-25T02:08:11;26.23;;;6.63;;
44696;SDS011;57264;47.480;19.354;2023-04-25T02:10:36;21.00;;;6.53;;
44696;SDS011;57264;47.480;19.354;2023-04-25T02:13:02;26.03;;;6.97;;
44696;SDS011;57264;47.480;19.354;2023-04-25T02:15:28;29.13;;;6.80;;
44696;SDS011;57264;47.480;19.354;2023-04-25T02:17:54;28.17;;;7.70;;
44696;SDS011;57264;47.480;19.354;2023-04-25T02:20:20;26.45;;;8.40;;
44696;SDS011;57264;47.480;19.354;2023-04-25T02:22:48;27.15;;;7.70;;
44696;SDS011;57264;47.480;19.354;2023-04-25T02:25:14;28.80;;;7.95;;
44696;SDS011;57264;47.480;19.354;2023-04-25T02:27:41;33.58;;;5.93;;
44696;SDS011;57264;47.480;19.354;2023-04-25T02:30:07;28.67;;;7.13;;
44696;SDS011;57264;47.480;19.354;2023-04-25T02:32:33;30.20;;;7.70;;
44696;SDS011;57264;47.480;19.354;2023-04-25T02:34:59;27.93;;;10.63;;
44696;SDS011;57264;47.480;19.354;2023-04-25T02:37:31;35.53;;;7.10;;
44696;SDS011;57264;47.480;19.354;2023-04-25T02:40:01;27.35;;;7.90;;
44696;SDS011;57264;47.480;19.354;2023-04-25T02:42:30;28.38;;;8.23;;
44696;SDS011;57264;47.480;19.354;2023-04-25T02:44:56;28.83;;;8.10;;
44696;SDS011;57264;47.480;19.354;2023-04-25T02:47:21;30.87;;;8.10;;
44696;SDS011;57264;47.480;19.354;2023-04-25T02:49:47;28.37;;;7.40;;
44696;SDS011;57264;47.480;19.354;2023-04-25T02:52:13;24.73;;;7.10;;
44696;SDS011;57264;47.480;19.354;2023-04-25T02:54:39;22.37;;;7.70;;
44696;SDS011;57264;47.480;19.354;2023-04-25T02:57:05;20.92;;;7.28;;
44696;SDS011;57264;47.480;19.354;2023-04-25T02:59:31;20.80;;;7.40;;
44696;SDS011;57264;47.480;19.354;2023-04-25T03:01:56;17.90;;;7.23;;
44696;SDS011;57264;47.480;19.354;2023-04-25T03:04:22;19.00;;;7.43;;
44696;SDS011;57264;47.480;19.354;2023-04-25T03:06:52;15.32;;;9.70;;
44696;SDS011;57264;47.480;19.354;2023-04-25T03:09:18;18.92;;;5.35;;
44696;SDS011;57264;47.480;19.354;2023-04-25T03:11:44;17.97;;;6.23;;
44696;SDS011;57264;47.480;19.354;2023-04-25T03:14:10;16.42;;;7.32;;
44696;SDS011;57264;47.480;19.354;2023-04-25T03:16:36;11.60;;;9.73;;
44696;SDS011;57264;47.480;19.354;2023-04-25T03:19:02;16.10;;;8.40;;
44696;SDS011;57264;47.480;19.354;2023-04-25T03:21:28;7.03;;;4.57;;
44696;SDS011;57264;47.480;19.354;2023-04-25T03:23:53;10.00;;;4.90;;
44696;SDS011;57264;47.480;19.354;2023-04-25T03:26:19;11.30;;;4.57;;
44696;SDS011;57264;47.480;19.354;2023-04-25T03:28:45;2.33;;;1.20;;
44696;SDS011;57264;47.480;19.354;2023-04-25T03:31:11;8.90;;;3.83;;
44696;SDS011;57264;47.480;19.354;2023-04-25T03:33:36;3.83;;;1.20;;
44696;SDS011;57264;47.480;19.354;2023-04-25T03:36:02;2.80;;;1.40;;
44696;SDS011;57264;47.480;19.354;2023-04-25T03:38:28;3.95;;;1.30;;
44696;SDS011;57264;47.480;19.354;2023-04-25T03:40:54;2.27;;;1.40;;
44696;SDS011;57264;47.480;19.354;2023-04-25T03:43:21;1.77;;;1.50;;
44696;SDS011;57264;47.480;19.354;2023-04-25T03:45:47;1.60;;;1.50;;
44696;SDS011;57264;47.480;19.354;2023-04-25T03:48:15;1.77;;;1.40;;
44696;SDS011;57264;47.480;19.354;2023-04-25T03:50:41;2.40;;;1.70;;
44696;SDS011;57264;47.480;19.354;2023-04-25T03:53:07;169.10;;;10.23;;
44696;SDS011;57264;47.480;19.354;2023-04-25T03:55:32;52.23;;;3.83;;
44696;SDS011;57264;47.480;19.354;2023-04-25T03:57:58;1.77;;;1.67;;
44696;SDS011;57264;47.480;19.354;2023-04-25T04:00:24;2.27;;;1.60;;
44696;SDS011;57264;47.480;19.354;2023-04-25T04:02:50;1.70;;;1.50;;
44696;SDS011;57264;47.480;19.354;2023-04-25T04:05:16;2.27;;;1.37;;
44696;SDS011;57264;47.480;19.354;2023-04-25T04:07:41;1.50;;;1.10;;
44696;SDS011;57264;47.480;19.354;2023-04-25T04:10:08;1.40;;;1.30;;
44696;SDS011;57264;47.480;19.354;2023-04-25T04:12:34;1.67;;;1.40;;
44696;SDS011;57264;47.480;19.354;2023-04-25T04:15:01;1.23;;;1.13;;
44696;SDS011;57264;47.480;19.354;2023-04-25T04:17:29;2.38;;;1.20;;
44696;SDS011;57264;47.480;19.354;2023-04-25T04:19:54;1.20;;;1.10;;
44696;SDS011;57264;47.480;19.354;2023-04-25T04:22:21;42.95;;;2.45;;
44696;SDS011;57264;47.480;19.354;2023-04-25T04:24:47;1.60;;;1.00;;
44696;SDS011;57264;47.480;19.354;2023-04-25T04:27:13;44.73;;;3.33;;
44696;SDS011;57264;47.480;19.354;2023-04-25T04:29:38;1.67;;;1.07;;
44696;SDS011;57264;47.480;19.354;2023-04-25T04:32:04;2.00;;;1.10;;
44696;SDS011;57264;47.480;19.354;2023-04-25T04:34:30;1.60;;;0.93;;
44696;SDS011;57264;47.480;19.354;2023-04-25T04:36:56;1.00;;;0.85;;
44696;SDS011;57264;47.480;19.354;2023-04-25T04:39:22;0.80;;;0.80;;
44696;SDS011;57264;47.480;19.354;2023-04-25T04:41:48;1.80;;;1.00;;
44696;SDS011;57264;47.480;19.354;2023-04-25T04:44:14;1.10;;;1.00;;
44696;SDS011;57264;47.480;19.354;2023-04-25T04:46:40;1.17;;;1.00;;
44696;SDS011;57264;47.480;19.354;2023-04-25T04:49:10;4.15;;;1.10;;
44696;SDS011;57264;47.480;19.354;2023-04-25T04:51:36;2.42;;;1.35;;
44696;SDS011;57264;47.480;19.354;2023-04-25T04:54:02;3.90;;;1.38;;
44696;SDS011;57264;47.480;19.354;2023-04-25T04:56:29;1.98;;;1.33;;
44696;SDS011;57264;47.480;19.354;2023-04-25T04:58:58;2.00;;;1.40;;
44696;SDS011;57264;47.480;19.354;2023-04-25T05:01:25;4.70;;;1.60;;
44696;SDS011;57264;47.480;19.354;2023-04-25T05:03:51;1.70;;;1.60;;
44696;SDS011;57264;47.480;19.354;2023-04-25T05:06:18;6.38;;;4.22;;
44696;SDS011;57264;47.480;19.354;2023-04-25T05:08:44;4.00;;;3.20;;
44696;SDS011;57264;47.480;19.354;2023-04-25T05:11:09;7.07;;;4.33;;
44696;SDS011;57264;47.480;19.354;2023-04-25T05:13:36;8.65;;;4.00;;
44696;SDS011;57264;47.480;19.354;2023-04-25T05:16:01;11.17;;;5.33;;
44696;SDS011;57264;47.480;19.354;2023-04-25T05:18:27;13.73;;;5.93;;
44696;SDS011;57264;47.480;19.354;2023-04-25T05:20:53;11.90;;;7.47;;
44696;SDS011;57264;47.480;19.354;2023-04-25T05:23:19;13.73;;;6.40;;
44696;SDS011;57264;47.480;19.354;2023-04-25T05:25:44;11.30;;;5.23;;
44696;SDS011;57264;47.480;19.354;2023-04-25T05:28:11;18.77;;;7.90;;
44696;SDS011;57264;47.480;19.354;2023-04-25T05:30:38;18.52;;;7.13;;
44696;SDS011;57264;47.480;19.354;2023-04-25T05:33:03;19.40;;;7.33;;
44696;SDS011;57264;47.480;19.354;2023-04-25T05:35:29;14.17;;;10.10;;
44696;SDS011;57264;47.480;19.354;2023-04-25T05:37:55;19.30;;;8.07;;
44696;SDS011;57264;47.480;19.354;2023-04-25T05:40:20;17.17;;;7.43;;
44696;SDS011;57264;47.480;19.354;2023-04-25T05:42:46;19.33;;;6.30;;
44696;SDS011;57264;47.480;19.354;2023-04-25T05:45:11;20.03;;;5.80;;
44696;SDS011;57264;47.480;19.354;2023-04-25T05:47:38;16.83;;;5.90;;
44696;SDS011;57264;47.480;19.354;2023-04-25T05:50:03;16.47;;;7.10;;
44696;SDS011;57264;47.480;19.354;2023-04-25T05:52:29;19.40;;;7.15;;
44696;SDS011;57264;47.480;19.354;2023-04-25T05:54:55;19.30;;;3.70;;
44696;SDS011;57264;47.480;19.354;2023-04-25T05:57:22;16.60;;;8.63;;
44696;SDS011;57264;47.480;19.354;2023-04-25T05:59:50;16.70;;;5.43;;
44696;SDS011;57264;47.480;19.354;2023-04-25T06:02:16;17.30;;;6.70;;
44696;SDS011;57264;47.480;19.354;2023-04-25T06:04:42;13.50;;;9.32;;
44696;SDS011;57264;47.480;19.354;2023-04-25T06:07:08;18.00;;;5.57;;
44696;SDS011;57264;47.480;19.354;2023-04-25T06:09:33;16.30;;;4.23;;
44696;SDS011;57264;47.480;19.354;2023-04-25T06:12:00;14.45;;;5.35;;
44696;SDS011;57264;47.480;19.354;2023-04-25T06:14:27;17.25;;;5.15;;
44696;SDS011;57264;47.480;19.354;2023-04-25T06:16:52;15.53;;;5.33;;
44696;SDS011;57264;47.480;19.354;2023-04-25T06:19:18;13.53;;;6.07;;
44696;SDS011;57264;47.480;19.354;2023-04-25T06:21:44;16.77;;;5.53;;
44696;SDS011;57264;47.480;19.354;2023-04-25T06:24:09;123.13;;;72.18;;
44696;SDS011;57264;47.480;19.354;2023-04-25T06:26:35;20.13;;;9.40;;
44696;SDS011;57264;47.480;19.354;2023-04-25T06:29:01;15.37;;;6.40;;
44696;SDS011;57264;47.480;19.354;2023-04-25T06:31:27;23.95;;;10.75;;
44696;SDS011;57264;47.480;19.354;2023-04-25T06:33:54;28.00;;;15.55;;
44696;SDS011;57264;47.480;19.354;2023-04-25T06:36:22;32.90;;;12.50;;
44696;SDS011;57264;47.480;19.354;2023-04-25T06:38:53;60.92;;;24.73;;
44696;SDS011;57264;47.480;19.354;2023-04-25T06:41:19;149.68;;;40.08;;
44696;SDS011;57264;47.480;19.354;2023-04-25T06:43:45;32.15;;;13.27;;
44696;SDS011;57264;47.480;19.354;2023-04-25T06:46:11;42.30;;;20.33;;
44696;SDS011;57264;47.480;19.354;2023-04-25T06:48:37;40.60;;;19.80;;
44696;SDS011;57264;47.480;19.354;2023-04-25T06:51:02;224.73;;;51.23;;
44696;SDS011;57264;47.480;19.354;2023-04-25T06:53:28;38.87;;;21.73;;
44696;SDS011;57264;47.480;19.354;2023-04-25T06:55:54;200.27;;;56.33;;
44696;SDS011;57264;47.480;19.354;2023-04-25T06:58:19;54.97;;;22.33;;
44696;SDS011;57264;47.480;19.354;2023-04-25T07:00:45;52.27;;;17.97;;
44696;SDS011;57264;47.480;19.354;2023-04-25T07:03:10;64.00;;;31.67;;
44696;SDS011;57264;47.480;19.354;2023-04-25T07:05:36;53.70;;;20.40;;
44696;SDS011;57264;47.480;19.354;2023-04-25T07:08:02;48.80;;;22.57;;
44696;SDS011;57264;47.480;19.354;2023-04-25T07:10:28;46.37;;;20.63;;
44696;SDS011;57264;47.480;19.354;2023-04-25T07:12:53;58.93;;;22.67;;
44696;SDS011;57264;47.480;19.354;2023-04-25T07:15:19;51.33;;;22.87;;
44696;SDS011;57264;47.480;19.354;2023-04-25T07:17:44;49.03;;;24.07;;
44696;SDS011;57264;47.480;19.354;2023-04-25T07:20:10;49.70;;;21.63;;
44696;SDS011;57264;47.480;19.354;2023-04-25T07:22:36;39.87;;;16.83;;
44696;SDS011;57264;47.480;19.354;2023-04-25T07:25:01;39.23;;;17.73;;
44696;SDS011;57264;47.480;19.354;2023-04-25T07:27:29;33.17;;;16.67;;
44696;SDS011;57264;47.480;19.354;2023-04-25T07:29:55;30.98;;;15.40;;
44696;SDS011;57264;47.480;19.354;2023-04-25T07:32:21;29.63;;;13.43;;
44696;SDS011;57264;47.480;19.354;2023-04-25T07:34:46;29.87;;;11.97;;
44696;SDS011;57264;47.480;19.354;2023-04-25T07:37:12;22.33;;;12.00;;
44696;SDS011;57264;47.480;19.354;2023-04-25T07:39:39;30.97;;;20.87;;
44696;SDS011;57264;47.480;19.354;2023-04-25T07:42:04;62.87;;;29.83;;
44696;SDS011;57264;47.480;19.354;2023-04-25T07:44:32;17.03;;;6.10;;
44696;SDS011;57264;47.480;19.354;2023-04-25T07:47:03;17.03;;;5.77;;
44696;SDS011;57264;47.480;19.354;2023-04-25T07:49:38;17.55;;;6.82;;
44696;SDS011;57264;47.480;19.354;2023-04-25T07:52:33;16.50;;;8.40;;
44696;SDS011;57264;47.480;19.354;2023-04-25T07:54:59;16.10;;;6.50;;
44696;SDS011;57264;47.480;19.354;2023-04-25T07:57:25;10.97;;;8.27;;
44696;SDS011;57264;47.480;19.354;2023-04-25T07:59:50;11.27;;;6.33;;
44696;SDS011;57264;47.480;19.354;2023-04-25T08:02:16;11.53;;;6.03;;
44696;SDS011;57264;47.480;19.354;2023-04-25T08:04:41;6.13;;;4.40;;
44696;SDS011;57264;47.480;19.354;2023-04-25T08:07:07;3.13;;;2.00;;
44696;SDS011;57264;47.480;19.354;2023-04-25T08:09:32;2.17;;;1.97;;
44696;SDS011;57264;47.480;19.354;2023-04-25T08:12:00;2.50;;;2.30;;
44696;SDS011;57264;47.480;19.354;2023-04-25T08:14:27;2.70;;;2.50;;
44696;SDS011;57264;47.480;19.354;2023-04-25T08:16:54;2.20;;;2.00;;
44696;SDS011;57264;47.480;19.354;2023-04-25T08:19:19;4.23;;;2.63;;
44696;SDS011;57264;47.480;19.354;2023-04-25T08:21:45;3.90;;;2.90;;
44696;SDS011;57264;47.480;19.354;2023-04-25T08:24:10;2.83;;;2.60;;
44696;SDS011;57264;47.480;19.354;2023-04-25T08:26:36;2.70;;;2.50;;
44696;SDS011;57264;47.480;19.354;2023-04-25T08:29:02;2.80;;;2.37;;
44696;SDS011;57264;47.480;19.354;2023-04-25T08:31:28;2.43;;;2.23;;
44696;SDS011;57264;47.480;19.354;2023-04-25T08:33:53;2.63;;;2.00;;
44696;SDS011;57264;47.480;19.354;2023-04-25T08:36:19;2.53;;;2.33;;
44696;SDS011;57264;47.480;19.354;2023-04-25T08:38:44;52.50;;;2.97;;
44696;SDS011;57264;47.480;19.354;2023-04-25T08:41:10;2.40;;;2.20;;
44696;SDS011;57264;47.480;19.354;2023-04-25T08:43:36;2.80;;;2.07;;
44696;SDS011;57264;47.480;19.354;2023-04-25T08:46:02;3.93;;;2.10;;
44696;SDS011;57264;47.480;19.354;2023-04-25T08:48:28;3.13;;;1.93;;
44696;SDS011;57264;47.480;19.354;2023-04-25T08:50:59;3.80;;;1.90;;
44696;SDS011;57264;47.480;19.354;2023-04-25T08:53:28;2.60;;;1.70;;
44696;SDS011;57264;47.480;19.354;2023-04-25T08:55:56;3.47;;;1.70;;
44696;SDS011;57264;47.480;19.354;2023-04-25T08:58:23;1.90;;;1.70;;
44696;SDS011;57264;47.480;19.354;2023-04-25T09:00:50;2.00;;;1.70;;
44696;SDS011;57264;47.480;19.354;2023-04-25T09:03:16;2.33;;;1.63;;
44696;SDS011;57264;47.480;19.354;2023-04-25T09:05:42;2.40;;;1.90;;
44696;SDS011;57264;47.480;19.354;2023-04-25T09:08:08;3.73;;;1.50;;
44696;SDS011;57264;47.480;19.354;2023-04-25T09:10:34;3.53;;;1.63;;
44696;SDS011;57264;47.480;19.354;2023-04-25T09:13:07;1.40;;;1.30;;
44696;SDS011;57264;47.480;19.354;2023-04-25T09:15:51;2.03;;;1.20;;
44696;SDS011;57264;47.480;19.354;2023-04-25T09:18:21;2.33;;;1.50;;
44696;SDS011;57264;47.480;19.354;2023-04-25T09:21:08;1.70;;;1.30;;
44696;SDS011;57264;47.480;19.354;2023-04-25T09:23:48;56.80;;;3.83;;
44696;SDS011;57264;47.480;19.354;2023-04-25T09:26:18;1.50;;;1.40;;
44696;SDS011;57264;47.480;19.354;2023-04-25T09:28:49;1.37;;;1.17;;
44696;SDS011;57264;47.480;19.354;2023-04-25T09:31:21;1.00;;;1.00;;
44696;SDS011;57264;47.480;19.354;2023-04-25T09:33:47;1.20;;;1.10;;
44696;SDS011;57264;47.480;19.354;2023-04-25T09:36:12;8.93;;;1.57;;
44696;SDS011;57264;47.480;19.354;2023-04-25T09:38:42;1.80;;;0.80;;
44696;SDS011;57264;47.480;19.354;2023-04-25T09:41:09;0.90;;;0.87;;
44696;SDS011;57264;47.480;19.354;2023-04-25T09:43:35;1.00;;;0.90;;
44696;SDS011;57264;47.480;19.354;2023-04-25T09:46:01;1.10;;;0.73;;
44696;SDS011;57264;47.480;19.354;2023-04-25T09:48:27;0.87;;;0.80;;
44696;SDS011;57264;47.480;19.354;2023-04-25T09:51:15;2.17;;;0.90;;
44696;SDS011;57264;47.480;19.354;2023-04-25T09:53:43;1.80;;;0.90;;
44696;SDS011;57264;47.480;19.354;2023-04-25T09:56:19;0.83;;;0.83;;
44696;SDS011;57264;47.480;19.354;2023-04-25T09:58:47;1.10;;;1.00;;
44696;SDS011;57264;47.480;19.354;2023-04-25T10:01:15;1.97;;;1.13;;
44696;SDS011;57264;47.480;19.354;2023-04-25T10:03:41;1.60;;;0.83;;
44696;SDS011;57264;47.480;19.354;2023-04-25T10:06:12;1.03;;;0.83;;
44696;SDS011;57264;47.480;19.354;2023-04-25T10:08:42;0.77;;;0.67;;
44696;SDS011;57264;47.480;19.354;2023-04-25T10:11:09;1.00;;;1.00;;
44696;SDS011;57264;47.480;19.354;2023-04-25T10:13:35;0.93;;;0.83;;
44696;SDS011;57264;47.480;19.354;2023-04-25T10:16:02;0.80;;;0.80;;
44696;SDS011;57264;47.480;19.354;2023-04-25T10:18:29;1.23;;;0.60;;
44696;SDS011;57264;47.480;19.354;2023-04-25T10:20:58;21.43;;;1.43;;
44696;SDS011;57264;47.480;19.354;2023-04-25T10:23:25;1.07;;;0.67;;
44696;SDS011;57264;47.480;19.354;2023-04-25T10:25:52;0.60;;;0.60;;
44696;SDS011;57264;47.480;19.354;2023-04-25T10:28:18;2.00;;;1.00;;
44696;SDS011;57264;47.480;19.354;2023-04-25T10:30:57;0.70;;;0.70;;
44696;SDS011;57264;47.480;19.354;2023-04-25T10:33:32;0.70;;;0.70;;
44696;SDS011;57264;47.480;19.354;2023-04-25T10:35:58;1.43;;;0.60;;
44696;SDS011;57264;47.480;19.354;2023-04-25T10:38:24;1.23;;;0.60;;
44696;SDS011;57264;47.480;19.354;2023-04-25T10:41:04;0.40;;;0.40;;
44696;SDS011;57264;47.480;19.354;2023-04-25T10:46:00;0.60;;;0.60;;
44696;SDS011;57264;47.480;19.354;2023-04-25T10:48:51;0.50;;;0.50;;
44696;SDS011;57264;47.480;19.354;2023-04-25T10:51:23;1.53;;;0.70;;
44696;SDS011;57264;47.480;19.354;2023-04-25T10:54:00;0.40;;;0.40;;
44696;SDS011;57264;47.480;19.354;2023-04-25T10:56:41;0.70;;;0.30;;
44696;SDS011;57264;47.480;19.354;2023-04-25T10:59:16;0.50;;;0.50;;
44696;SDS011;57264;47.480;19.354;2023-04-25T11:01:46;0.40;;;0.40;;
44696;SDS011;57264;47.480;19.354;2023-04-25T11:04:23;0.30;;;0.30;;
44696;SDS011;57264;47.480;19.354;2023-04-25T11:09:56;0.40;;;0.40;;
44696;SDS011;57264;47.480;19.354;2023-04-25T11:12:24;0.40;;;0.40;;
44696;SDS011;57264;47.480;19.354;2023-04-25T11:14:50;2.37;;;0.37;;
44696;SDS011;57264;47.480;19.354;2023-04-25T11:17:16;0.53;;;0.27;;
44696;SDS011;57264;47.480;19.354;2023-04-25T11:19:42;0.30;;;0.30;;
44696;SDS011;57264;47.480;19.354;2023-04-25T11:22:07;0.57;;;0.20;;
44696;SDS011;57264;47.480;19.354;2023-04-25T11:24:35;0.30;;;0.30;;
44696;SDS011;57264;47.480;19.354;2023-04-25T11:27:02;0.33;;;0.30;;
44696;SDS011;57264;47.480;19.354;2023-04-25T11:29:32;0.20;;;0.20;;
44696;SDS011;57264;47.480;19.354;2023-04-25T11:31:59;27.17;;;2.17;;
44696;SDS011;57264;47.480;19.354;2023-04-25T11:34:26;1.20;;;0.20;;
44696;SDS011;57264;47.480;19.354;2023-04-25T11:36:55;2.73;;;0.30;;
44696;SDS011;57264;47.480;19.354;2023-04-25T11:39:23;0.37;;;0.37;;
44696;SDS011;57264;47.480;19.354;2023-04-25T11:41:49;0.40;;;0.40;;
44696;SDS011;57264;47.480;19.354;2023-04-25T11:44:16;2.50;;;0.30;;
44696;SDS011;57264;47.480;19.354;2023-04-25T11:46:43;1.23;;;0.83;;
44696;SDS011;57264;47.480;19.354;2023-04-25T11:49:09;0.87;;;0.70;;
44696;SDS011;57264;47.480;19.354;2023-04-25T11:51:38;49.90;;;3.70;;
44696;SDS011;57264;47.480;19.354;2023-04-25T11:54:08;0.40;;;0.40;;
44696;SDS011;57264;47.480;19.354;2023-04-25T11:56:34;0.70;;;0.30;;
44696;SDS011;57264;47.480;19.354;2023-04-25T11:59:03;1.90;;;0.40;;
44696;SDS011;57264;47.480;19.354;2023-04-25T12:01:31;1.03;;;0.30;;
44696;SDS011;57264;47.480;19.354;2023-04-25T12:03:58;0.93;;;0.40;;
44696;SDS011;57264;47.480;19.354;2023-04-25T12:06:36;0.40;;;0.40;;
44696;SDS011;57264;47.480;19.354;2023-04-25T12:09:10;0.57;;;0.40;;
44696;SDS011;57264;47.480;19.354;2023-04-25T12:11:44;0.50;;;0.40;;
44696;SDS011;57264;47.480;19.354;2023-04-25T12:14:11;0.50;;;0.40;;
44696;SDS011;57264;47.480;19.354;2023-04-25T12:16:45;0.30;;;0.30;;
44696;SDS011;57264;47.480;19.354;2023-04-25T12:19:15;1.00;;;0.40;;
44696;SDS011;57264;47.480;19.354;2023-04-25T12:21:42;1.70;;;0.40;;
44696;SDS011;57264;47.480;19.354;2023-04-25T12:26:53;0.50;;;0.40;;
44696;SDS011;57264;47.480;19.354;2023-04-25T12:29:24;2.30;;;0.50;;
44696;SDS011;57264;47.480;19.354;2023-04-25T12:31:51;2.50;;;0.60;;
44696;SDS011;57264;47.480;19.354;2023-04-25T12:34:18;0.63;;;0.60;;
44696;SDS011;57264;47.480;19.354;2023-04-25T12:36:44;2.73;;;0.70;;
44696;SDS011;57264;47.480;19.354;2023-04-25T12:39:14;1.50;;;1.20;;
44696;SDS011;57264;47.480;19.354;2023-04-25T12:41:44;15.47;;;1.40;;
44696;SDS011;57264;47.480;19.354;2023-04-25T12:44:11;1.67;;;0.50;;
44696;SDS011;57264;47.480;19.354;2023-04-25T12:46:37;0.53;;;0.40;;
44696;SDS011;57264;47.480;19.354;2023-04-25T12:49:04;0.33;;;0.33;;
44696;SDS011;57264;47.480;19.354;2023-04-25T12:51:31;2.77;;;1.40;;
44696;SDS011;57264;47.480;19.354;2023-04-25T12:53:58;0.63;;;0.40;;
44696;SDS011;57264;47.480;19.354;2023-04-25T12:56:25;11.80;;;2.63;;
44696;SDS011;57264;47.480;19.354;2023-04-25T12:58:51;1.63;;;0.40;;
44696;SDS011;57264;47.480;19.354;2023-04-25T13:01:17;0.70;;;0.30;;
44696;SDS011;57264;47.480;19.354;2023-04-25T13:03:42;3.80;;;0.60;;
44696;SDS011;57264;47.480;19.354;2023-04-25T13:06:08;4.53;;;0.43;;
44696;SDS011;57264;47.480;19.354;2023-04-25T13:08:34;0.87;;;0.60;;
44696;SDS011;57264;47.480;19.354;2023-04-25T13:11:00;2.50;;;0.40;;
44696;SDS011;57264;47.480;19.354;2023-04-25T13:13:25;0.97;;;0.50;;
44696;SDS011;57264;47.480;19.354;2023-04-25T13:15:52;1.23;;;0.50;;
44696;SDS011;57264;47.480;19.354;2023-04-25T13:18:18;0.53;;;0.43;;
44696;SDS011;57264;47.480;19.354;2023-04-25T13:20:44;0.83;;;0.60;;
44696;SDS011;57264;47.480;19.354;2023-04-25T13:23:11;0.93;;;0.67;;
44696;SDS011;57264;47.480;19.354;2023-04-25T13:25:37;2.57;;;0.60;;
44696;SDS011;57264;47.480;19.354;2023-04-25T13:28:02;9.47;;;1.80;;
44696;SDS011;57264;47.480;19.354;2023-04-25T13:30:28;0.90;;;0.50;;
44696;SDS011;57264;47.480;19.354;2023-04-25T13:32:54;0.50;;;0.37;;
44696;SDS011;57264;47.480;19.354;2023-04-25T13:35:21;0.40;;;0.40;;
44696;SDS011;57264;47.480;19.354;2023-04-25T13:37:47;0.50;;;0.40;;
44696;SDS011;57264;47.480;19.354;2023-04-25T13:40:13;0.40;;;0.37;;
44696;SDS011;57264;47.480;19.354;2023-04-25T13:42:38;0.80;;;0.50;;
44696;SDS011;57264;47.480;19.354;2023-04-25T13:45:05;3.57;;;0.53;;
44696;SDS011;57264;47.480;19.354;2023-04-25T13:47:32;0.70;;;0.70;;
44696;SDS011;57264;47.480;19.354;2023-04-25T13:49:57;1.20;;;1.10;;
44696;SDS011;57264;47.480;19.354;2023-04-25T13:52:23;0.60;;;0.60;;
44696;SDS011;57264;47.480;19.354;2023-04-25T13:54:52;1.13;;;0.70;;
44696;SDS011;57264;47.480;19.354;2023-04-25T13:57:18;2.67;;;0.57;;
44696;SDS011;57264;47.480;19.354;2023-04-25T13:59:43;1.37;;;0.60;;
44696;SDS011;57264;47.480;19.354;2023-04-25T14:02:11;0.77;;;0.67;;
44696;SDS011;57264;47.480;19.354;2023-04-25T14:04:37;1.43;;;0.50;;
44696;SDS011;57264;47.480;19.354;2023-04-25T14:07:03;1.07;;;0.60;;
44696;SDS011;57264;47.480;19.354;2023-04-25T14:09:28;1.80;;;0.70;;
44696;SDS011;57264;47.480;19.354;2023-04-25T14:11:54;1.43;;;0.60;;
44696;SDS011;57264;47.480;19.354;2023-04-25T14:14:23;1.73;;;0.50;;
44696;SDS011;57264;47.480;19.354;2023-04-25T14:16:49;1.10;;;0.50;;
44696;SDS011;57264;47.480;19.354;2023-04-25T14:19:18;0.50;;;0.50;;
44696;SDS011;57264;47.480;19.354;2023-04-25T14:21:45;0.50;;;0.50;;
44696;SDS011;57264;47.480;19.354;2023-04-25T14:24:11;1.77;;;0.60;;
44696;SDS011;57264;47.480;19.354;2023-04-25T14:26:37;1.03;;;0.70;;
44696;SDS011;57264;47.480;19.354;2023-04-25T14:29:03;0.90;;;0.50;;
44696;SDS011;57264;47.480;19.354;2023-04-25T14:31:30;1.90;;;0.70;;
44696;SDS011;57264;47.480;19.354;2023-04-25T14:33:56;1.60;;;0.57;;
44696;SDS011;57264;47.480;19.354;2023-04-25T14:36:22;0.50;;;0.50;;